Time;durP1;ratioP1;P1;durP2;ratioP2;P2;SDS_P1;SDS_P2;PMS_P1;PMS_P2;Temp;Humidity;BMP_temperature;BMP_pressure;BME280_temperature;BME280_humidity;BME280_pressure;Samples;Min_cycle;Max_cycle;Signal;HPM_P1;HPM_P2
2023/04/03 00:00:31;;;;;;;2.70;1.60;;;18.50;44.10;;;;;;5010449;28;20427;-64
2023/04/03 00:02:57;;;;;;;1.60;1.50;;;18.50;44.20;;;;;;5010952;28;20222;-63
2023/04/03 00:05:22;;;;;;;1.63;1.53;;;18.50;44.10;;;;;;5008369;28;20592;-60
2023/04/03 00:07:49;;;;;;;1.60;1.50;;;18.50;44.10;;;;;;5010346;28;20242;-57
2023/04/03 00:10:15;;;;;;;5.43;1.80;;;18.50;44.10;;;;;;5011329;28;20302;-58
2023/04/03 00:12:41;;;;;;;1.60;1.50;;;18.40;44.00;;;;;;5012599;28;20464;-60
2023/04/03 00:15:07;;;;;;;1.80;1.70;;;18.50;44.10;;;;;;5010411;28;20514;-63
2023/04/03 00:17:32;;;;;;;3.53;1.70;;;18.40;44.00;;;;;;5006429;28;20235;-61
2023/04/03 00:19:58;;;;;;;2.00;1.90;;;18.50;44.10;;;;;;5010747;28;20226;-64
2023/04/03 00:22:23;;;;;;;1.67;1.57;;;18.50;44.10;;;;;;5007588;28;20226;-60
2023/04/03 00:24:49;;;;;;;1.53;1.43;;;18.50;44.10;;;;;;5013395;28;20741;-59
2023/04/03 00:27:15;;;;;;;1.73;1.63;;;18.40;44.00;;;;;;5004180;28;20284;-63
2023/04/03 00:29:41;;;;;;;1.67;1.57;;;18.40;44.00;;;;;;5012139;28;20227;-61
2023/04/03 00:32:06;;;;;;;1.90;1.80;;;18.40;44.00;;;;;;5011145;28;20561;-60
2023/04/03 00:34:32;;;;;;;1.30;1.20;;;18.40;44.00;;;;;;5010047;28;20218;-61
2023/04/03 00:36:57;;;;;;;1.60;1.50;;;18.50;44.10;;;;;;5014643;28;20861;-61
2023/04/03 00:39:23;;;;;;;1.73;1.63;;;18.40;44.00;;;;;;5012485;28;20219;-58
2023/04/03 00:41:48;;;;;;;1.97;1.73;;;18.40;44.00;;;;;;5011598;28;20298;-58
2023/04/03 00:44:37;;;;;;;1.70;1.60;;;18.40;44.00;;;;;;5011329;28;20716;-61
2023/04/03 00:47:05;;;;;;;1.67;1.57;;;18.40;44.00;;;;;;4991210;28;20226;-59
2023/04/03 00:49:31;;;;;;;1.70;1.60;;;18.40;44.00;;;;;;5011359;28;20599;-59
2023/04/03 00:51:58;;;;;;;1.60;1.50;;;18.40;44.00;;;;;;5012390;28;21015;-58
2023/04/03 00:54:25;;;;;;;1.50;1.40;;;18.40;44.00;;;;;;5018757;28;20372;-59
2023/04/03 00:56:53;;;;;;;1.77;1.67;;;18.40;44.00;;;;;;5014328;28;20462;-60
2023/04/03 00:59:26;;;;;;;1.73;1.63;;;18.40;44.00;;;;;;5018416;28;20969;-60
2023/04/03 01:01:54;;;;;;;1.50;1.40;;;18.40;44.00;;;;;;5012928;28;20435;-61
2023/04/03 01:04:47;;;;;;;1.67;1.57;;;18.40;44.00;;;;;;5013405;28;20438;-58
2023/04/03 01:07:18;;;;;;;2.40;1.67;;;18.40;44.00;;;;;;5013753;28;20479;-64
2023/04/03 01:09:45;;;;;;;1.90;1.80;;;18.40;44.00;;;;;;5012990;28;21020;-59
2023/04/03 01:12:19;;;;;;;1.50;1.40;;;18.40;44.00;;;;;;5015958;28;20486;-58
2023/04/03 01:14:46;;;;;;;1.63;1.53;;;18.40;44.00;;;;;;5012042;28;20525;-58
2023/04/03 01:17:35;;;;;;;1.80;1.70;;;18.40;44.00;;;;;;5005983;28;20453;-61
2023/04/03 01:20:35;;;;;;;1.93;1.83;;;18.40;44.00;;;;;;5015778;28;20464;-58
2023/04/03 01:23:09;;;;;;;1.50;1.40;;;18.40;44.00;;;;;;5012314;28;20476;-58
2023/04/03 01:25:45;;;;;;;1.90;1.80;;;18.40;44.00;;;;;;5011322;28;20541;-60
2023/04/03 01:28:15;;;;;;;1.77;1.40;;;18.40;44.00;;;;;;5010686;28;20440;-58
2023/04/03 01:31:12;;;;;;;2.17;1.97;;;18.40;44.00;;;;;;5014693;28;20424;-61
2023/04/03 01:33:38;;;;;;;1.53;1.43;;;18.40;44.00;;;;;;4995866;28;20451;-61
2023/04/03 01:36:04;;;;;;;1.70;1.60;;;18.40;44.00;;;;;;5012970;28;20423;-59
2023/04/03 01:38:30;;;;;;;1.60;1.50;;;18.40;44.00;;;;;;5012394;28;20336;-58
2023/04/03 01:40:55;;;;;;;1.40;1.30;;;18.40;44.10;;;;;;5011115;28;20464;-58
2023/04/03 01:43:21;;;;;;;1.60;1.50;;;18.40;43.90;;;;;;5014970;28;20990;-63
2023/04/03 01:45:46;;;;;;;1.53;1.43;;;18.40;44.00;;;;;;5008934;28;20226;-58
2023/04/03 01:48:13;;;;;;;1.70;1.60;;;18.40;43.90;;;;;;5008633;28;22451;-63
2023/04/03 01:50:38;;;;;;;1.67;1.57;;;18.40;43.90;;;;;;5008709;28;20226;-59
2023/04/03 01:53:04;;;;;;;1.60;1.50;;;18.40;44.00;;;;;;5012688;28;20434;-61
2023/04/03 01:55:30;;;;;;;1.40;1.30;;;18.40;44.00;;;;;;5011866;28;20267;-59
2023/04/03 01:57:55;;;;;;;1.50;1.40;;;18.40;44.20;;;;;;5011478;28;20234;-60
2023/04/03 02:00:21;;;;;;;1.60;1.50;;;18.40;44.00;;;;;;5010361;28;20374;-58
2023/04/03 02:02:47;;;;;;;2.13;1.60;;;18.40;44.00;;;;;;5012073;28;20227;-58
2023/04/03 02:05:12;;;;;;;1.57;1.47;;;18.40;44.00;;;;;;5012113;28;20225;-61
2023/04/03 02:07:38;;;;;;;1.47;1.37;;;18.30;43.90;;;;;;5011017;28;20226;-58
2023/04/03 02:10:03;;;;;;;1.50;1.40;;;18.40;44.00;;;;;;5011200;28;20233;-60
2023/04/03 02:12:29;;;;;;;1.80;1.70;;;18.40;44.00;;;;;;5013626;28;20227;-61
2023/04/03 02:14:54;;;;;;;2.33;1.60;;;18.40;44.00;;;;;;5008991;28;20218;-59
2023/04/03 02:17:20;;;;;;;1.80;1.70;;;18.40;44.00;;;;;;5010318;28;20235;-58
2023/04/03 02:19:45;;;;;;;1.43;1.33;;;18.40;43.90;;;;;;5013595;28;20244;-59
2023/04/03 02:22:11;;;;;;;1.50;1.40;;;18.40;44.00;;;;;;5011500;28;20226;-58
2023/04/03 02:24:38;;;;;;;1.60;1.50;;;18.40;44.00;;;;;;5011220;28;20325;-58
2023/04/03 02:27:04;;;;;;;1.77;1.67;;;18.40;44.00;;;;;;5014091;28;20226;-61
2023/04/03 02:29:30;;;;;;;1.60;1.50;;;18.30;43.90;;;;;;5015363;28;20469;-58
2023/04/03 02:31:56;;;;;;;1.60;1.50;;;18.40;44.00;;;;;;5008636;28;20219;-58
2023/04/03 02:34:21;;;;;;;1.57;1.47;;;18.40;43.90;;;;;;5011977;28;20567;-58
2023/04/03 02:36:47;;;;;;;1.87;1.77;;;18.40;43.90;;;;;;5011537;28;20694;-59
2023/04/03 02:39:12;;;;;;;1.63;1.53;;;18.40;43.90;;;;;;5010867;28;20254;-64
2023/04/03 02:41:38;;;;;;;1.70;1.60;;;18.30;43.90;;;;;;5015500;28;20760;-58
2023/04/03 02:44:05;;;;;;;1.50;1.40;;;18.30;43.80;;;;;;5009622;28;21030;-59
2023/04/03 02:46:31;;;;;;;1.63;1.50;;;18.30;43.90;;;;;;5013054;28;20262;-63
2023/04/03 02:48:57;;;;;;;1.50;1.40;;;18.30;43.90;;;;;;5013025;28;20578;-63
2023/04/03 02:51:25;;;;;;;1.90;1.80;;;18.30;43.90;;;;;;5010279;28;20238;-58
2023/04/03 02:53:50;;;;;;;1.93;1.50;;;18.30;43.80;;;;;;5008775;28;20222;-58
2023/04/03 02:56:18;;;;;;;1.60;1.50;;;18.30;43.80;;;;;;5007068;28;20638;-61
2023/04/03 02:58:44;;;;;;;1.90;1.80;;;18.30;43.90;;;;;;5008403;28;20239;-60
2023/04/03 03:01:10;;;;;;;1.83;1.73;;;18.30;43.80;;;;;;5008933;28;20427;-60
2023/04/03 03:03:35;;;;;;;1.60;1.50;;;18.30;43.80;;;;;;5008466;28;20514;-59
2023/04/03 03:06:02;;;;;;;1.80;1.70;;;18.30;43.80;;;;;;5011855;28;20468;-62
2023/04/03 03:08:28;;;;;;;1.77;1.67;;;18.30;43.80;;;;;;5008891;28;20253;-58
2023/04/03 03:10:53;;;;;;;1.67;1.57;;;18.30;43.80;;;;;;5012287;28;20453;-57
2023/04/03 03:13:19;;;;;;;1.50;1.40;;;18.30;43.80;;;;;;5008705;28;20219;-59
2023/04/03 03:15:44;;;;;;;1.60;1.50;;;18.30;43.80;;;;;;5012240;28;20305;-58
2023/04/03 03:18:10;;;;;;;2.07;1.50;;;18.30;43.80;;;;;;5007803;28;20234;-61
2023/04/03 03:20:35;;;;;;;1.73;1.63;;;18.30;43.80;;;;;;5009105;28;20222;-62
2023/04/03 03:23:01;;;;;;;1.83;1.53;;;18.30;43.80;;;;;;5011369;28;20280;-59
2023/04/03 03:25:26;;;;;;;1.30;1.20;;;18.30;43.80;;;;;;5006984;28;20222;-58
2023/04/03 03:27:52;;;;;;;1.60;1.50;;;18.30;43.70;;;;;;5011190;28;20238;-58
2023/04/03 03:30:17;;;;;;;1.70;1.60;;;18.30;43.70;;;;;;5011218;28;21062;-58
2023/04/03 03:32:43;;;;;;;1.50;1.40;;;18.30;43.70;;;;;;5009185;28;20736;-60
2023/04/03 03:35:08;;;;;;;1.70;1.60;;;18.30;43.70;;;;;;5012521;28;20230;-57
2023/04/03 03:37:34;;;;;;;1.63;1.53;;;18.30;43.70;;;;;;5010059;28;20242;-62
2023/04/03 03:40:00;;;;;;;1.80;1.70;;;18.30;43.70;;;;;;5012683;28;20219;-58
2023/04/03 03:42:25;;;;;;;1.47;1.37;;;18.30;43.70;;;;;;5004884;28;20232;-61
2023/04/03 03:44:51;;;;;;;1.40;1.30;;;18.30;43.70;;;;;;5009094;28;20207;-59
2023/04/03 03:47:17;;;;;;;1.70;1.60;;;18.30;43.70;;;;;;5009666;28;20328;-61
2023/04/03 03:49:42;;;;;;;1.50;1.40;;;18.30;43.60;;;;;;5001491;28;20861;-62
2023/04/03 03:52:10;;;;;;;1.53;1.43;;;18.30;43.60;;;;;;5011743;28;20218;-60
2023/04/03 03:54:36;;;;;;;1.50;1.40;;;18.30;43.70;;;;;;5014105;28;20218;-58
2023/04/03 03:57:01;;;;;;;1.33;1.23;;;18.30;43.70;;;;;;5008546;28;20491;-60
2023/04/03 03:59:27;;;;;;;1.80;1.70;;;18.30;43.70;;;;;;5014849;28;20304;-60
2023/04/03 04:01:52;;;;;;;1.87;1.77;;;18.30;43.60;;;;;;5013484;28;20226;-60
2023/04/03 04:04:18;;;;;;;1.80;1.70;;;18.30;43.60;;;;;;5016159;28;20231;-61
2023/04/03 04:06:43;;;;;;;1.70;1.60;;;18.30;43.60;;;;;;5014571;28;20215;-60
2023/04/03 04:09:09;;;;;;;1.50;1.40;;;18.30;43.60;;;;;;5015282;28;20217;-60
2023/04/03 04:11:35;;;;;;;1.60;1.50;;;18.30;43.50;;;;;;5015724;28;20638;-59
2023/04/03 04:14:00;;;;;;;1.60;1.50;;;18.30;43.60;;;;;;5017312;28;20231;-60
2023/04/03 04:16:26;;;;;;;1.60;1.50;;;18.30;43.60;;;;;;5015317;28;20274;-57
2023/04/03 04:18:51;;;;;;;1.60;1.50;;;18.30;43.50;;;;;;5015034;28;20225;-59
2023/04/03 04:21:17;;;;;;;1.53;1.43;;;18.30;43.20;;;;;;5013196;28;20717;-65
2023/04/03 04:23:42;;;;;;;1.50;1.40;;;18.40;43.30;;;;;;5014670;28;20229;-58
2023/04/03 04:26:08;;;;;;;2.50;1.50;;;18.40;43.30;;;;;;5012424;28;20228;-59
2023/04/03 04:28:33;;;;;;;1.87;1.77;;;18.40;43.30;;;;;;5011035;28;20236;-60
2023/04/03 04:30:59;;;;;;;1.70;1.60;;;18.40;43.30;;;;;;5013187;28;20923;-59
2023/04/03 04:33:25;;;;;;;1.87;1.77;;;18.40;43.30;;;;;;5012081;28;20226;-62
2023/04/03 04:35:54;;;;;;;1.73;1.63;;;18.40;43.30;;;;;;5011001;28;20219;-58
2023/04/03 04:38:19;;;;;;;1.80;1.70;;;18.40;43.30;;;;;;5011130;28;20268;-62
2023/04/03 04:40:46;;;;;;;270.10;24.97;;;18.40;43.30;;;;;;5011987;28;20739;-60
2023/04/03 04:43:14;;;;;;;4.53;2.07;;;18.40;43.30;;;;;;5007225;28;20289;-62
2023/04/03 04:45:40;;;;;;;4.17;1.73;;;18.40;43.30;;;;;;5002156;28;20460;-62
2023/04/03 04:48:05;;;;;;;1.47;1.30;;;18.40;43.20;;;;;;4995642;28;20437;-59
2023/04/03 04:50:31;;;;;;;2.20;1.57;;;18.50;43.40;;;;;;4998679;28;20487;-61
2023/04/03 04:52:56;;;;;;;1.50;1.37;;;18.50;43.40;;;;;;5004183;28;20226;-59
2023/04/03 04:55:22;;;;;;;2.20;1.63;;;18.50;43.40;;;;;;5002154;28;20242;-65
2023/04/03 04:57:47;;;;;;;1.40;1.30;;;18.50;43.40;;;;;;5001554;28;20295;-67
2023/04/03 05:00:14;;;;;;;1.70;1.60;;;18.50;43.40;;;;;;4999283;28;20307;-66
2023/04/03 05:02:40;;;;;;;1.50;1.23;;;18.50;43.40;;;;;;4997364;28;20284;-58
2023/04/03 05:05:06;;;;;;;1.40;1.30;;;18.50;43.40;;;;;;5007557;28;20460;-64
2023/04/03 05:07:31;;;;;;;1.63;1.53;;;18.50;43.90;;;;;;5003430;28;20234;-64
2023/04/03 05:09:57;;;;;;;1.73;1.63;;;18.50;43.40;;;;;;5009118;28;21456;-61
2023/04/03 05:12:22;;;;;;;1.73;1.23;;;18.50;43.40;;;;;;5004646;28;20226;-60
2023/04/03 05:14:48;;;;;;;1.47;1.37;;;18.60;43.50;;;;;;5006795;28;20224;-61
2023/04/03 05:17:13;;;;;;;1.57;1.47;;;18.60;43.50;;;;;;5004960;28;20242;-60
2023/04/03 05:19:39;;;;;;;1.47;1.37;;;18.50;43.40;;;;;;5007461;28;21237;-61
2023/04/03 05:22:04;;;;;;;1.43;1.33;;;18.60;43.50;;;;;;5008816;28;20273;-65
2023/04/03 05:24:30;;;;;;;1.50;1.40;;;18.60;43.50;;;;;;5004713;28;20230;-64
2023/04/03 05:26:55;;;;;;;1.50;1.40;;;18.60;43.50;;;;;;5007130;28;20229;-61
2023/04/03 05:29:21;;;;;;;1.33;1.23;;;18.60;43.50;;;;;;5008271;28;20238;-65
2023/04/03 05:31:50;;;;;;;2.97;1.40;;;18.60;43.50;;;;;;5006360;28;20298;-60
2023/04/03 05:34:15;;;;;;;1.50;1.40;;;18.60;43.50;;;;;;4997633;28;20234;-63
2023/04/03 05:36:41;;;;;;;1.80;1.70;;;18.60;43.40;;;;;;5003577;28;20453;-63
2023/04/03 05:39:07;;;;;;;1.93;1.83;;;18.60;43.50;;;;;;5010491;28;20224;-59
2023/04/03 05:41:32;;;;;;;1.57;1.47;;;18.60;43.50;;;;;;5003812;28;20583;-64
2023/04/03 05:43:58;;;;;;;1.73;1.50;;;18.70;43.60;;;;;;5000091;28;20230;-63
2023/04/03 05:46:23;;;;;;;1.57;1.47;;;18.70;44.30;;;;;;5000818;28;20246;-64
2023/04/03 05:48:49;;;;;;;1.40;1.30;;;18.70;43.60;;;;;;5006736;28;20619;-62
2023/04/03 05:51:23;;;;;;;1.23;1.13;;;18.70;43.60;;;;;;5006305;28;20666;-59
2023/04/03 05:53:58;;;;;;;5.43;1.80;;;18.70;43.60;;;;;;5004517;28;20499;-58
2023/04/03 05:56:24;;;;;;;2.23;1.50;;;18.70;43.60;;;;;;5011762;28;20488;-60
2023/04/03 05:58:49;;;;;;;1.60;1.50;;;18.70;43.60;;;;;;5017953;28;20627;-59
2023/04/03 06:01:15;;;;;;;1.27;1.17;;;18.70;43.50;;;;;;5012830;28;20301;-60
2023/04/03 06:03:41;;;;;;;1.30;1.20;;;18.70;43.60;;;;;;5014230;28;20748;-59
2023/04/03 06:06:07;;;;;;;1.53;1.43;;;18.70;43.60;;;;;;5019702;28;20883;-61
2023/04/03 06:08:34;;;;;;;1.60;1.50;;;18.70;44.30;;;;;;5010860;28;20246;-59
2023/04/03 06:10:59;;;;;;;2.00;1.37;;;18.70;43.60;;;;;;5013392;28;20467;-61
2023/04/03 06:13:25;;;;;;;2.80;1.50;;;18.70;43.60;;;;;;5012237;28;21372;-65
2023/04/03 06:15:50;;;;;;;1.67;1.40;;;18.70;43.50;;;;;;5011772;28;20623;-63
2023/04/03 06:18:16;;;;;;;1.50;1.40;;;18.70;43.60;;;;;;5008777;28;20316;-60
2023/04/03 06:20:41;;;;;;;1.50;1.40;;;18.80;43.60;;;;;;5010207;28;20328;-61
2023/04/03 06:23:07;;;;;;;1.30;1.20;;;18.80;43.60;;;;;;5015245;28;20726;-59
2023/04/03 06:25:33;;;;;;;1.30;1.20;;;18.80;43.60;;;;;;5009999;28;20230;-60
2023/04/03 06:27:59;;;;;;;1.40;1.30;;;18.80;43.60;;;;;;5015414;28;20738;-63
2023/04/03 06:30:24;;;;;;;1.77;1.20;;;18.80;43.60;;;;;;5007671;28;21218;-63
2023/04/03 06:32:50;;;;;;;1.57;1.47;;;18.80;43.60;;;;;;5008362;28;20223;-59
2023/04/03 06:35:15;;;;;;;1.30;1.20;;;18.80;43.60;;;;;;5017963;28;20230;-59
2023/04/03 06:37:41;;;;;;;1.80;1.70;;;18.80;43.60;;;;;;5013956;28;20234;-59
2023/04/03 06:40:11;;;;;;;1.40;1.30;;;18.80;43.60;;;;;;5014016;28;20214;-59
2023/04/03 06:42:36;;;;;;;1.40;1.30;;;18.80;43.60;;;;;;5016207;28;20227;-61
2023/04/03 06:45:02;;;;;;;1.50;1.40;;;18.80;43.60;;;;;;5015209;28;20464;-60
2023/04/03 06:47:28;;;;;;;1.40;1.30;;;18.90;43.70;;;;;;5012625;28;20685;-58
2023/04/03 06:49:53;;;;;;;1.60;1.50;;;18.80;43.60;;;;;;5024307;28;20210;-60
2023/04/03 06:52:19;;;;;;;1.47;1.37;;;18.90;43.70;;;;;;5015875;28;20660;-64
2023/04/03 06:54:44;;;;;;;2.07;1.30;;;18.80;43.60;;;;;;5014752;28;20687;-61
2023/04/03 06:57:10;;;;;;;1.33;1.23;;;18.90;43.70;;;;;;5012116;28;20265;-58
2023/04/03 06:59:36;;;;;;;1.40;1.30;;;18.80;43.60;;;;;;5014801;28;22053;-58
2023/04/03 07:02:02;;;;;;;1.50;1.40;;;18.80;43.60;;;;;;5014727;28;20252;-60
2023/04/03 07:04:27;;;;;;;1.50;1.40;;;18.90;43.70;;;;;;5012922;28;20551;-62
2023/04/03 07:06:53;;;;;;;1.50;1.40;;;18.80;43.60;;;;;;5014641;28;20221;-61
2023/04/03 07:09:18;;;;;;;1.40;1.30;;;18.90;43.70;;;;;;5017844;28;20223;-61
2023/04/03 07:11:44;;;;;;;1.30;1.20;;;18.90;43.70;;;;;;5009728;28;20214;-65
2023/04/03 07:14:10;;;;;;;1.40;1.30;;;18.90;44.50;;;;;;5005976;28;20364;-61
2023/04/03 07:16:35;;;;;;;1.40;1.30;;;18.90;43.70;;;;;;5013907;28;20423;-59
2023/04/03 07:19:02;;;;;;;1.23;1.13;;;18.90;43.70;;;;;;5010375;28;20223;-59
2023/04/03 07:21:28;;;;;;;1.50;1.40;;;18.90;43.70;;;;;;5010473;28;20633;-60
2023/04/03 07:23:54;;;;;;;1.40;1.30;;;18.90;43.70;;;;;;5024648;28;20811;-62
2023/04/03 07:26:23;;;;;;;1.43;1.33;;;18.90;44.00;;;;;;5011912;28;20503;-59
2023/04/03 07:28:49;;;;;;;1.40;1.30;;;18.90;43.70;;;;;;5013147;28;20314;-59
2023/04/03 07:31:16;;;;;;;2.80;1.67;;;18.90;44.50;;;;;;5012587;28;20460;-65
2023/04/03 07:33:43;;;;;;;3.13;1.40;;;18.90;43.70;;;;;;5015592;28;20555;-62
2023/04/03 07:36:11;;;;;;;1.27;1.00;;;18.90;43.70;;;;;;5017806;28;20467;-60
2023/04/03 07:38:37;;;;;;;1.47;1.37;;;18.90;43.80;;;;;;5011649;28;20551;-61
2023/04/03 07:41:03;;;;;;;1.20;1.10;;;18.90;43.70;;;;;;5014701;28;20547;-59
2023/04/03 07:43:29;;;;;;;1.20;1.10;;;18.90;43.70;;;;;;5006669;28;20819;-62
2023/04/03 07:45:55;;;;;;;1.27;1.17;;;18.90;43.70;;;;;;5010132;28;20442;-63
2023/04/03 07:48:23;;;;;;;1.30;1.20;;;18.90;43.70;;;;;;5012897;28;20234;-64
2023/04/03 07:50:48;;;;;;;1.10;1.00;;;19.00;43.80;;;;;;5006904;28;20903;-61
2023/04/03 07:53:14;;;;;;;1.30;1.20;;;18.90;43.70;;;;;;5014435;28;20783;-61
2023/04/03 07:55:42;;;;;;;1.30;1.20;;;18.90;43.70;;;;;;5015823;28;20237;-63
2023/04/03 07:58:10;;;;;;;1.27;1.17;;;18.90;43.80;;;;;;5019365;28;20468;-61
2023/04/03 08:00:36;;;;;;;1.63;1.20;;;18.90;43.70;;;;;;5014733;28;20509;-61
2023/04/03 08:03:02;;;;;;;1.20;1.10;;;18.90;43.70;;;;;;5021320;28;20443;-60
2023/04/03 08:05:27;;;;;;;1.50;1.20;;;18.90;43.70;;;;;;5019783;28;20647;-58
2023/04/03 08:07:52;;;;;;;1.10;1.03;;;18.90;43.70;;;;;;5015243;28;20748;-59
2023/04/03 08:10:18;;;;;;;1.20;1.10;;;19.00;43.80;;;;;;5017677;28;20219;-61
2023/04/03 08:12:46;;;;;;;1.40;1.30;;;18.90;43.70;;;;;;5020657;28;20223;-61
2023/04/03 08:15:12;;;;;;;1.10;1.00;;;19.00;43.80;;;;;;5019160;28;20230;-62
2023/04/03 08:17:37;;;;;;;1.17;1.07;;;18.90;43.70;;;;;;5019355;28;20512;-60
2023/04/03 08:20:04;;;;;;;1.20;1.10;;;18.90;43.70;;;;;;5020137;28;20571;-59
2023/04/03 08:22:30;;;;;;;1.53;1.10;;;18.90;43.70;;;;;;5019283;28;21105;-59
2023/04/03 08:24:56;;;;;;;0.90;0.90;;;18.90;43.70;;;;;;5019911;28;20539;-61
2023/04/03 08:27:21;;;;;;;0.90;0.90;;;18.90;43.70;;;;;;5010330;28;20282;-62
2023/04/03 08:29:47;;;;;;;1.20;1.00;;;19.00;43.80;;;;;;5016484;28;20229;-61
2023/04/03 08:32:12;;;;;;;1.17;1.07;;;19.00;43.80;;;;;;5014186;28;20223;-59
2023/04/03 08:34:39;;;;;;;1.10;1.00;;;18.90;43.70;;;;;;5018486;28;20223;-62
2023/04/03 08:37:05;;;;;;;1.20;1.10;;;19.00;43.80;;;;;;5020703;28;20248;-64
2023/04/03 08:39:31;;;;;;;1.10;1.00;;;19.00;43.80;;;;;;5010309;28;20696;-60
2023/04/03 08:42:01;;;;;;;1.23;1.13;;;19.00;43.80;;;;;;5012957;28;20920;-59
2023/04/03 08:44:35;;;;;;;1.30;1.20;;;19.00;43.80;;;;;;5019967;28;20226;-61
2023/04/03 08:47:07;;;;;;;1.17;1.07;;;19.00;43.80;;;;;;5017887;28;20963;-63
2023/04/03 08:49:46;;;;;;;1.20;1.10;;;19.00;43.80;;;;;;5010551;28;20482;-60
2023/04/03 08:52:15;;;;;;;1.70;1.17;;;19.00;43.80;;;;;;5016544;28;21675;-61
2023/04/03 08:54:57;;;;;;;1.20;1.00;;;19.00;43.80;;;;;;5018825;28;20480;-66
2023/04/03 08:57:48;;;;;;;1.17;1.07;;;19.00;43.80;;;;;;5019131;28;20449;-60
2023/04/03 09:00:16;;;;;;;1.70;1.10;;;19.00;43.80;;;;;;5017773;28;20529;-61
2023/04/03 09:02:53;;;;;;;1.20;1.10;;;19.00;43.80;;;;;;5018925;28;20437;-63
2023/04/03 09:05:39;;;;;;;1.70;1.20;;;19.00;43.80;;;;;;5014356;28;20435;-64
2023/04/03 09:08:20;;;;;;;1.00;0.83;;;19.00;43.80;;;;;;5015448;28;20465;-59
2023/04/03 09:10:46;;;;;;;1.27;1.13;;;19.00;43.80;;;;;;5013944;28;20477;-62
2023/04/03 09:13:32;;;;;;;1.20;1.10;;;19.00;43.80;;;;;;5015146;28;20510;-66
2023/04/03 09:16:36;;;;;;;1.30;1.20;;;19.00;43.80;;;;;;5015659;28;21170;-59
2023/04/03 09:19:15;;;;;;;0.80;0.80;;;19.00;43.80;;;;;;5014187;28;20553;-58
2023/04/03 09:21:42;;;;;;;1.33;0.90;;;19.00;43.80;;;;;;5011806;28;20994;-61
2023/04/03 09:24:12;;;;;;;1.40;1.30;;;19.00;43.80;;;;;;5015505;28;21695;-58
2023/04/03 09:26:56;;;;;;;1.10;1.00;;;19.00;43.80;;;;;;5012222;28;20770;-64
2023/04/03 09:29:23;;;;;;;1.20;1.00;;;19.00;43.80;;;;;;5015007;28;20962;-61
2023/04/03 09:32:19;;;;;;;0.83;0.83;;;19.00;43.80;;;;;;5011884;28;20483;-59
2023/04/03 09:34:45;;;;;;;1.10;1.00;;;19.00;43.80;;;;;;4984352;28;20440;-64
2023/04/03 09:37:32;;;;;;;2.00;1.10;;;19.00;43.80;;;;;;5008876;28;20488;-64
2023/04/03 09:39:59;;;;;;;0.80;0.70;;;19.00;43.80;;;;;;5016125;28;20277;-62
2023/04/03 09:42:25;;;;;;;1.00;0.90;;;19.00;43.80;;;;;;5017503;28;20469;-59
2023/04/03 09:45:00;;;;;;;1.10;1.00;;;19.00;43.80;;;;;;5017332;28;20430;-63
2023/04/03 09:47:33;;;;;;;1.70;0.97;;;19.00;43.80;;;;;;5014227;28;20487;-64
2023/04/03 09:50:14;;;;;;;1.10;1.00;;;19.00;43.80;;;;;;5020531;28;20993;-59
2023/04/03 09:52:45;;;;;;;1.10;0.90;;;19.00;43.80;;;;;;5007326;28;20449;-62
2023/04/03 09:55:21;;;;;;;1.20;1.10;;;19.00;43.80;;;;;;5014884;28;20542;-61
2023/04/03 09:57:48;;;;;;;0.87;0.87;;;19.00;43.80;;;;;;5008287;28;20500;-59
2023/04/03 10:00:26;;;;;;;1.00;0.90;;;19.00;43.80;;;;;;5011952;28;20446;-60
2023/04/03 10:02:56;;;;;;;3.00;0.90;;;19.00;43.80;;;;;;5014598;28;20468;-60
2023/04/03 10:05:35;;;;;;;1.00;0.90;;;19.00;43.80;;;;;;5007077;28;20975;-63
2023/04/03 10:08:28;;;;;;;1.20;1.10;;;19.00;43.80;;;;;;5011488;28;20468;-61
2023/04/03 10:11:13;;;;;;;0.93;0.83;;;19.00;43.80;;;;;;5002018;28;20464;-61
2023/04/03 10:13:56;;;;;;;1.00;0.90;;;19.00;43.80;;;;;;5010604;28;20456;-59
2023/04/03 10:16:47;;;;;;;1.00;0.80;;;19.00;43.80;;;;;;5003118;28;20461;-62
2023/04/03 10:19:30;;;;;;;1.10;1.00;;;19.00;43.80;;;;;;5007314;28;20434;-66
2023/04/03 10:22:00;;;;;;;1.00;0.90;;;19.00;43.80;;;;;;5014082;28;20463;-59
2023/04/03 10:24:47;;;;;;;0.90;0.90;;;19.00;43.80;;;;;;5013639;28;20537;-64
2023/04/03 10:27:26;;;;;;;0.90;0.80;;;19.00;43.80;;;;;;5012251;28;20493;-59
2023/04/03 10:30:18;;;;;;;1.00;0.90;;;19.00;43.80;;;;;;5004808;28;20471;-64
2023/04/03 10:33:21;;;;;;;1.13;0.90;;;19.00;43.80;;;;;;5000687;28;20482;-60
2023/04/03 10:36:18;;;;;;;0.80;0.77;;;19.00;43.80;;;;;;5015695;28;21277;-59
2023/04/03 10:38:47;;;;;;;0.80;0.80;;;19.00;43.80;;;;;;5014134;28;20480;-59
2023/04/03 10:41:22;;;;;;;1.47;0.90;;;19.00;43.80;;;;;;5007898;28;20708;-58
2023/04/03 10:44:09;;;;;;;1.00;0.90;;;19.00;43.80;;;;;;5012419;28;20503;-59
2023/04/03 10:46:49;;;;;;;1.00;0.90;;;19.00;43.80;;;;;;5005416;28;20473;-62
2023/04/03 10:49:29;;;;;;;1.10;1.00;;;19.00;43.80;;;;;;5005108;28;20453;-61
2023/04/03 10:52:32;;;;;;;1.30;1.20;;;19.00;43.80;;;;;;5011628;28;20751;-63
2023/04/03 10:55:32;;;;;;;1.43;0.90;;;19.00;43.80;;;;;;4996750;28;20938;-62
2023/04/03 10:57:59;;;;;;;1.73;0.90;;;19.00;43.80;;;;;;5008913;28;21105;-67
2023/04/03 11:00:30;;;;;;;0.80;0.70;;;19.00;43.80;;;;;;5011922;28;20488;-62
2023/04/03 11:03:00;;;;;;;1.10;1.00;;;19.10;43.90;;;;;;5007660;28;20465;-62
2023/04/03 11:05:43;;;;;;;0.90;0.90;;;19.00;43.80;;;;;;5011105;28;20431;-59
2023/04/03 11:08:27;;;;;;;1.17;1.07;;;19.10;43.90;;;;;;5007684;28;20472;-62
2023/04/03 11:11:02;;;;;;;1.00;0.90;;;19.10;43.90;;;;;;5009105;28;20468;-60
2023/04/03 11:13:35;;;;;;;0.83;0.83;;;19.00;43.80;;;;;;5015507;28;24180;-58
2023/04/03 11:16:03;;;;;;;0.80;0.80;;;19.00;43.80;;;;;;5011249;28;20442;-61
2023/04/03 11:18:55;;;;;;;1.03;0.93;;;19.10;43.90;;;;;;5013042;28;20527;-60
2023/04/03 11:21:30;;;;;;;1.10;1.00;;;19.00;43.80;;;;;;4999409;28;21532;-60
2023/04/03 11:23:58;;;;;;;0.80;0.80;;;19.10;43.90;;;;;;5011535;28;20471;-59
2023/04/03 11:26:29;;;;;;;0.83;0.83;;;19.10;43.90;;;;;;5014239;28;20503;-59
2023/04/03 11:29:06;;;;;;;1.00;0.87;;;19.10;43.90;;;;;;5006806;28;20437;-68
2023/04/03 11:32:10;;;;;;;0.80;0.80;;;19.10;43.90;;;;;;5012639;28;20534;-71
2023/04/03 11:34:43;;;;;;;1.00;0.90;;;19.10;43.90;;;;;;5005263;28;20904;-60
2023/04/03 11:37:36;;;;;;;1.00;0.87;;;19.10;43.90;;;;;;5012192;28;20519;-61
2023/04/03 11:40:09;;;;;;;0.90;0.80;;;19.10;43.80;;;;;;5007043;28;20467;-65
2023/04/03 11:42:38;;;;;;;0.90;0.77;;;19.10;43.90;;;;;;5015703;28;20474;-62
2023/04/03 11:45:21;;;;;;;0.93;0.83;;;19.10;43.90;;;;;;5011988;28;24520;-65
2023/04/03 11:47:52;;;;;;;0.87;0.80;;;19.10;43.90;;;;;;5008413;28;20464;-60
2023/04/03 11:50:36;;;;;;;0.80;0.70;;;19.10;43.90;;;;;;5017065;28;21041;-60
2023/04/03 11:53:25;;;;;;;0.83;0.80;;;19.10;43.90;;;;;;5011887;28;20456;-59
2023/04/03 11:55:50;;;;;;;0.80;0.80;;;19.10;43.90;;;;;;5004385;28;20453;-62
2023/04/03 11:58:18;;;;;;;1.10;1.00;;;19.10;43.90;;;;;;5009666;28;20550;-59
2023/04/03 12:00:47;;;;;;;2.60;0.97;;;19.10;43.90;;;;;;5007384;28;20229;-61
2023/04/03 12:03:28;;;;;;;0.83;0.83;;;19.10;43.90;;;;;;5014280;28;20477;-65
2023/04/03 12:06:16;;;;;;;0.97;0.83;;;19.10;43.90;;;;;;5003458;28;20997;-64
2023/04/03 12:08:41;;;;;;;0.90;0.90;;;19.10;43.90;;;;;;5018194;28;20438;-67
2023/04/03 12:11:13;;;;;;;0.80;0.80;;;19.10;43.90;;;;;;5012273;28;20457;-59
2023/04/03 12:13:56;;;;;;;0.80;0.80;;;19.10;43.90;;;;;;5009263;28;20215;-66
2023/04/03 12:16:37;;;;;;;0.90;0.80;;;19.10;43.90;;;;;;5012609;28;20463;-60
2023/04/03 12:19:15;;;;;;;0.80;0.70;;;19.10;43.80;;;;;;5018110;28;20435;-61
2023/04/03 12:21:51;;;;;;;0.97;0.87;;;19.10;43.90;;;;;;5018649;28;20484;-63
2023/04/03 12:24:17;;;;;;;0.70;0.70;;;19.10;43.90;;;;;;5018471;28;20737;-65
2023/04/03 12:27:04;;;;;;;0.80;0.70;;;19.10;43.90;;;;;;5011034;28;21739;-62
2023/04/03 12:29:33;;;;;;;1.43;0.93;;;19.20;44.00;;;;;;5020246;28;20237;-59
2023/04/03 12:32:17;;;;;;;1.90;0.70;;;19.10;43.90;;;;;;5015259;28;20513;-60
2023/04/03 12:35:10;;;;;;;1.00;0.90;;;19.10;43.90;;;;;;5016150;28;20456;-61
2023/04/03 12:38:03;;;;;;;1.00;0.90;;;19.10;43.90;;;;;;5014037;28;20475;-60
2023/04/03 12:40:31;;;;;;;1.97;0.80;;;19.10;43.90;;;;;;5014718;28;20456;-61
2023/04/03 12:43:28;;;;;;;0.80;0.60;;;19.20;44.00;;;;;;5013284;28;20460;-61
2023/04/03 12:46:02;;;;;;;0.80;0.70;;;19.20;44.00;;;;;;5013778;28;20474;-64
2023/04/03 12:48:30;;;;;;;0.70;0.70;;;19.20;44.00;;;;;;5016895;28;20472;-68
2023/04/03 12:50:58;;;;;;;1.13;1.03;;;19.20;43.90;;;;;;5016030;28;20477;-61
2023/04/03 12:53:33;;;;;;;0.80;0.80;;;19.20;44.00;;;;;;5012263;28;20546;-59
2023/04/03 12:56:26;;;;;;;0.90;0.80;;;19.20;44.00;;;;;;5014686;28;21139;-66
2023/04/03 12:58:53;;;;;;;1.10;0.80;;;19.20;44.00;;;;;;5014366;28;20476;-61
2023/04/03 13:01:23;;;;;;;0.83;0.70;;;19.20;44.00;;;;;;5014506;28;20961;-59